Time;durP1;ratioP1;P1;durP2;ratioP2;P2;SDS_P1;SDS_P2;PMS_P1;PMS_P2;Temp;Humidity;BMP_temperature;BMP_pressure;BME280_temperature;BME280_humidity;BME280_pressure;Samples;Min_cycle;Max_cycle;Signal;HPM_P1;HPM_P2
2023/07/23 00:00:40;;;;;;;0.00;0.00;;;;;;;20.37;60.30;99762.38;4294948;33;20108;-93
2023/07/23 00:03:07;;;;;;;2.83;0.73;;;;;;;20.31;60.29;99751.38;4294822;33;20112;-95
2023/07/23 00:05:33;;;;;;;2.45;0.20;;;;;;;20.06;60.28;99760.22;4295154;33;20064;-95
2023/07/23 00:07:59;;;;;;;0.00;0.00;;;;;;;20.34;60.29;99752.00;4294760;33;20138;-94
2023/07/23 00:10:24;;;;;;;0.00;0.00;;;;;;;20.31;60.29;99756.66;4295183;33;20375;-95
2023/07/23 00:12:50;;;;;;;0.00;0.00;;;;;;;20.06;60.28;99765.50;4296400;33;20096;-95
2023/07/23 00:15:17;;;;;;;0.47;0.47;;;;;;;20.07;60.27;99761.91;4296565;33;20108;-94
2023/07/23 00:17:42;;;;;;;0.60;0.60;;;;;;;19.94;60.27;99759.31;4296771;33;20112;-96
2023/07/23 00:20:09;;;;;;;0.00;0.00;;;;;;;20.08;60.29;99766.25;4296547;33;20100;-95
2023/07/23 00:22:36;;;;;;;0.10;0.00;;;;;;;19.99;60.28;99766.91;4296805;33;20100;-95
2023/07/23 00:25:02;;;;;;;0.22;0.20;;;;;;;19.96;60.28;99769.78;4296671;33;20167;-94
2023/07/23 00:27:28;;;;;;;0.00;0.00;;;;;;;20.13;60.28;99766.78;4297154;33;20112;-94
2023/07/23 00:29:53;;;;;;;0.25;0.25;;;;;;;20.19;60.29;99764.53;4296488;33;20100;-95
2023/07/23 00:32:18;;;;;;;0.10;0.10;;;;;;;20.32;60.30;99764.50;4296597;33;20140;-95
2023/07/23 00:34:44;;;;;;;0.00;0.00;;;;;;;20.19;60.29;99767.19;4296294;33;20134;-95
2023/07/23 00:37:09;;;;;;;0.00;0.00;;;;;;;20.25;60.29;99776.47;4296116;33;20131;-95
2023/07/23 00:39:35;;;;;;;0.00;0.00;;;;;;;20.36;60.30;99773.91;4296716;33;20143;-94
2023/07/23 00:42:00;;;;;;;0.05;0.05;;;;;;;20.26;60.29;99774.66;4296300;33;20087;-94
2023/07/23 00:44:26;;;;;;;0.45;0.32;;;;;;;20.17;60.29;99771.75;4296129;33;20209;-95
2023/07/23 00:46:52;;;;;;;0.00;0.00;;;;;;;19.89;60.27;99767.56;4296839;33;20124;-94
2023/07/23 00:49:18;;;;;;;0.00;0.00;;;;;;;20.12;60.28;99765.94;4296155;33;20096;-95
2023/07/23 00:51:43;;;;;;;0.10;0.10;;;;;;;20.13;60.28;99769.44;4296111;33;20167;-95
2023/07/23 00:54:09;;;;;;;0.80;0.10;;;;;;;20.22;60.28;99761.69;4296375;33;20115;-95
2023/07/23 00:56:35;;;;;;;0.95;0.10;;;;;;;20.32;60.30;99759.19;4296211;33;20100;-94
2023/07/23 00:59:00;;;;;;;0.00;0.00;;;;;;;20.46;60.30;99758.25;4296149;33;20100;-95
2023/07/23 01:01:26;;;;;;;0.10;0.10;;;;;;;20.33;60.30;99767.97;4296160;33;20175;-94
2023/07/23 01:03:51;;;;;;;0.32;0.30;;;;;;;20.49;60.31;99765.97;4296033;33;20134;-95
2023/07/23 01:06:17;;;;;;;0.10;0.10;;;;;;;20.57;60.31;99765.37;4308263;33;20175;-94
2023/07/23 01:08:43;;;;;;;2.42;1.02;;;;;;;20.62;60.32;99771.22;4296319;33;20096;-95
2023/07/23 01:11:08;;;;;;;0.00;0.00;;;;;;;20.71;60.32;99762.59;4296267;33;20210;-94
2023/07/23 01:13:36;;;;;;;0.20;0.20;;;;;;;20.53;60.30;99770.91;4296079;33;20104;-95
2023/07/23 01:16:07;;;;;;;0.00;0.00;;;;;;;20.40;60.30;99772.78;4296305;33;20120;-95
2023/07/23 01:18:33;;;;;;;0.10;0.10;;;;;;;20.54;60.30;99762.00;4310313;33;20060;-94
2023/07/23 01:20:59;;;;;;;0.10;0.10;;;;;;;20.64;60.31;99777.22;4306215;33;20065;-94
2023/07/23 01:23:24;;;;;;;0.00;0.00;;;;;;;20.76;60.32;99773.66;4296958;33;20125;-94
2023/07/23 01:25:49;;;;;;;0.00;0.00;;;;;;;20.87;60.33;99771.09;4295527;33;23016;-94
2023/07/23 01:28:15;;;;;;;0.32;0.32;;;;;;;20.68;60.31;99765.47;4295861;33;20165;-94
2023/07/23 01:30:40;;;;;;;0.35;0.32;;;;;;;20.58;60.31;99773.22;4296241;33;20398;-94
2023/07/23 01:33:06;;;;;;;0.00;0.00;;;;;;;20.64;60.31;99771.94;4283874;33;20148;-93
2023/07/23 01:35:32;;;;;;;0.00;0.00;;;;;;;20.55;60.31;99773.44;4296090;33;20835;-94
2023/07/23 01:37:57;;;;;;;0.10;0.03;;;;;;;20.62;60.31;99774.69;4296598;33;20416;-94
2023/07/23 01:40:22;;;;;;;1.77;0.15;;;;;;;20.61;60.30;99775.66;4297459;33;20127;-94
2023/07/23 01:42:48;;;;;;;0.15;0.15;;;;;;;20.56;60.31;99777.78;4295789;33;20103;-94
2023/07/23 01:45:13;;;;;;;0.05;0.05;;;;;;;20.42;60.30;99776.16;4295980;33;20155;-94
2023/07/23 01:47:39;;;;;;;0.08;0.08;;;;;;;20.33;60.29;99774.09;4296021;33;20173;-94
2023/07/23 01:50:05;;;;;;;0.37;0.37;;;;;;;20.43;60.30;99784.91;4295846;33;20474;-94
2023/07/23 01:52:30;;;;;;;0.10;0.10;;;;;;;20.40;60.30;99775.41;4295907;33;20525;-93
2023/07/23 01:54:56;;;;;;;0.00;0.00;;;;;;;20.45;60.29;99775.06;4295573;33;20096;-95
2023/07/23 01:57:21;;;;;;;0.10;0.10;;;;;;;20.36;60.29;99779.19;4295755;33;20184;-94
2023/07/23 01:59:47;;;;;;;0.00;0.00;;;;;;;20.32;60.29;99777.72;4297311;33;20398;-93
2023/07/23 02:02:13;;;;;;;0.00;0.00;;;;;;;20.56;60.31;99769.84;4295212;33;20103;-95
2023/07/23 02:04:38;;;;;;;0.00;0.00;;;;;;;20.32;60.29;99769.78;4295594;33;20103;-94
2023/07/23 02:07:04;;;;;;;0.65;0.45;;;;;;;20.22;60.28;99771.41;4295544;33;20108;-94
2023/07/23 02:09:29;;;;;;;0.10;0.10;;;;;;;20.29;60.29;99782.38;4295271;33;20399;-94
2023/07/23 02:11:54;;;;;;;0.00;0.00;;;;;;;20.45;60.30;99775.06;4295419;33;20675;-94
2023/07/23 02:14:20;;;;;;;0.00;0.00;;;;;;;20.46;60.29;99780.25;4295232;33;20135;-94
2023/07/23 02:16:45;;;;;;;0.08;0.08;;;;;;;20.50;60.30;99775.56;4295983;33;20156;-94
2023/07/23 02:19:13;;;;;;;0.20;0.20;;;;;;;20.32;60.29;99782.16;4296209;33;20112;-95
2023/07/23 02:21:38;;;;;;;0.00;0.00;;;;;;;20.28;60.29;99781.53;4295601;33;20171;-95
2023/07/23 02:24:10;;;;;;;0.00;0.00;;;;;;;20.08;60.27;99784.75;4295416;33;20112;-93
2023/07/23 02:26:38;;;;;;;0.00;0.00;;;;;;;20.12;60.28;99779.16;4295426;33;20163;-96
2023/07/23 02:29:07;;;;;;;1.75;0.30;;;;;;;19.96;60.28;99780.34;4295630;33;20739;-94
2023/07/23 02:31:33;;;;;;;0.00;0.00;;;;;;;19.89;60.27;99790.50;4295406;33;20068;-94
2023/07/23 02:33:58;;;;;;;0.30;0.30;;;;;;;19.89;60.26;99791.34;4294405;33;20395;-93
2023/07/23 02:36:24;;;;;;;0.00;0.00;;;;;;;19.85;60.28;99797.75;4296805;33;20143;-94
2023/07/23 02:38:49;;;;;;;0.13;0.13;;;;;;;19.87;60.26;99793.25;4307881;33;20144;-94
2023/07/23 02:41:15;;;;;;;0.00;0.00;;;;;;;20.02;60.28;99801.88;4295756;33;20203;-95
2023/07/23 02:43:40;;;;;;;0.35;0.17;;;;;;;19.76;60.26;99790.50;4295728;33;20172;-93
2023/07/23 02:46:05;;;;;;;0.00;0.00;;;;;;;19.80;60.26;99797.25;4302776;33;20088;-95
2023/07/23 02:48:31;;;;;;;0.30;0.30;;;;;;;19.79;60.27;99790.28;4309212;33;20136;-93
2023/07/23 02:50:56;;;;;;;0.93;0.28;;;;;;;19.65;60.26;99800.97;4298260;33;20099;-94
2023/07/23 02:53:22;;;;;;;0.00;0.00;;;;;;;19.60;60.26;99800.41;4295621;33;20480;-94
2023/07/23 02:55:47;;;;;;;0.00;0.00;;;;;;;19.91;60.27;99796.50;4295427;33;20371;-94
2023/07/23 02:58:13;;;;;;;0.20;0.20;;;;;;;19.44;60.24;99799.75;4295265;33;20402;-94
2023/07/23 03:00:41;;;;;;;0.00;0.00;;;;;;;19.44;60.24;99791.81;4295194;33;20107;-95
2023/07/23 03:03:07;;;;;;;0.00;0.00;;;;;;;19.31;60.24;99795.28;4295579;33;20794;-95
2023/07/23 03:05:36;;;;;;;0.00;0.00;;;;;;;19.74;60.26;99797.69;4295309;33;20100;-95
2023/07/23 03:08:02;;;;;;;1.15;0.52;;;;;;;19.32;60.24;99790.84;4295322;33;20126;-95
2023/07/23 03:10:29;;;;;;;0.20;0.15;;;;;;;19.29;60.23;99785.78;4307616;33;20136;-94
2023/07/23 03:12:55;;;;;;;4.95;1.65;;;;;;;19.49;60.25;99785.28;4307397;33;20076;-94
2023/07/23 03:15:21;;;;;;;0.08;0.08;;;;;;;19.39;60.25;99793.91;4295258;33;20348;-94
2023/07/23 03:17:47;;;;;;;0.10;0.10;;;;;;;19.08;60.23;99795.13;4295133;33;20101;-94
2023/07/23 03:20:13;;;;;;;0.95;0.90;;;;;;;19.18;60.24;99788.31;4307265;33;20197;-95
2023/07/23 03:22:39;;;;;;;0.25;0.25;;;;;;;19.38;60.25;99787.78;4295245;33;20174;-95
2023/07/23 03:25:04;;;;;;;0.40;0.40;;;;;;;19.26;60.23;99792.12;4283535;33;20159;-94
2023/07/23 03:27:30;;;;;;;0.00;0.00;;;;;;;19.24;60.24;99790.53;4295061;33;20138;-95
2023/07/23 03:29:55;;;;;;;0.10;0.10;;;;;;;19.32;60.24;99786.41;4295037;33;20446;-94
2023/07/23 03:32:21;;;;;;;0.00;0.00;;;;;;;19.19;60.23;99785.56;4295289;33;20545;-94
2023/07/23 03:34:46;;;;;;;0.22;0.20;;;;;;;19.21;60.23;99788.09;4306997;33;20110;-94
2023/07/23 03:37:12;;;;;;;0.00;0.00;;;;;;;19.26;60.23;99791.28;4295233;33;20119;-94
2023/07/23 03:39:37;;;;;;;0.20;0.20;;;;;;;18.96;60.22;99799.44;4295071;33;20188;-94
2023/07/23 03:42:06;;;;;;;0.00;0.00;;;;;;;19.09;60.23;99797.66;4294604;33;25708;-94
2023/07/23 03:44:32;;;;;;;0.00;0.00;;;;;;;19.23;60.24;99792.31;4319083;33;20100;-94
2023/07/23 03:47:14;;;;;;;1.23;0.45;;;;;;;18.95;60.22;99795.94;4294623;33;20155;-94
2023/07/23 03:49:40;;;;;;;0.00;0.00;;;;;;;19.10;60.23;99799.34;4308291;33;20103;-94
2023/07/23 03:52:06;;;;;;;0.05;0.05;;;;;;;18.88;60.21;99792.00;4294862;33;20232;-93
2023/07/23 03:54:32;;;;;;;0.37;0.37;;;;;;;19.08;60.23;99789.84;4294883;33;20450;-94
2023/07/23 03:56:58;;;;;;;0.10;0.10;;;;;;;19.15;60.23;99791.12;4295175;33;20104;-94
2023/07/23 03:59:28;;;;;;;0.00;0.00;;;;;;;19.33;60.24;99792.53;4294737;33;20172;-94
2023/07/23 04:01:53;;;;;;;3.75;1.20;;;;;;;19.21;60.23;99791.59;4294831;33;20135;-94
2023/07/23 04:04:19;;;;;;;0.45;0.35;;;;;;;19.11;60.23;99787.84;4294806;33;20520;-94
2023/07/23 04:06:44;;;;;;;0.00;0.00;;;;;;;19.00;60.23;99783.31;4294790;33;20092;-95
2023/07/23 04:09:10;;;;;;;0.00;0.00;;;;;;;18.90;60.22;99790.09;4295070;33;20204;-94
2023/07/23 04:11:35;;;;;;;0.43;0.32;;;;;;;19.02;60.22;99783.19;4294765;33;20190;-94
2023/07/23 04:14:01;;;;;;;0.00;0.00;;;;;;;19.03;60.23;99784.88;4298079;33;20123;-94
2023/07/23 04:16:26;;;;;;;0.08;0.08;;;;;;;19.08;60.23;99781.94;4308360;33;20114;-95
2023/07/23 04:18:52;;;;;;;0.00;0.00;;;;;;;19.13;60.22;99783.31;4300591;33;20196;-96
2023/07/23 04:21:26;;;;;;;1.25;0.90;;;;;;;19.23;60.24;99784.41;4294746;33;20180;-95
2023/07/23 04:23:53;;;;;;;0.00;0.00;;;;;;;19.61;60.25;99787.09;4296193;33;20124;-94
2023/07/23 04:26:18;;;;;;;0.47;0.47;;;;;;;19.68;60.25;99789.34;4306598;33;20474;-94
2023/07/23 04:28:44;;;;;;;0.10;0.10;;;;;;;19.80;60.27;99785.84;4294497;33;20135;-93
2023/07/23 04:31:10;;;;;;;2.47;1.00;;;;;;;19.78;60.26;99791.22;4294564;33;20142;-95
2023/07/23 04:33:35;;;;;;;0.00;0.00;;;;;;;19.70;60.26;99788.28;4294124;33;20123;-93
2023/07/23 04:36:03;;;;;;;1.12;0.37;;;;;;;19.72;60.26;99794.28;4294109;33;20490;-94
2023/07/23 04:38:28;;;;;;;0.05;0.05;;;;;;;19.91;60.27;99786.78;4294446;33;20135;-94
2023/07/23 04:40:53;;;;;;;0.00;0.00;;;;;;;20.09;60.28;99795.19;4294280;33;20133;-95
2023/07/23 04:43:19;;;;;;;1.75;1.17;;;;;;;20.04;60.27;99794.69;4294287;33;20150;-94
2023/07/23 04:45:44;;;;;;;0.00;0.00;;;;;;;20.23;60.29;99794.25;4294073;33;20188;-95
2023/07/23 04:48:12;;;;;;;0.00;0.00;;;;;;;20.24;60.29;99795.94;4281985;33;20103;-93
2023/07/23 04:50:37;;;;;;;0.00;0.00;;;;;;;20.52;60.30;99798.31;4294513;33;20884;-94
2023/07/23 04:53:03;;;;;;;0.00;0.00;;;;;;;20.44;60.29;99803.31;4293879;33;20121;-94
2023/07/23 04:55:28;;;;;;;0.00;0.00;;;;;;;20.59;60.30;99801.38;4293881;33;20120;-94
2023/07/23 04:57:57;;;;;;;1.35;0.55;;;;;;;20.82;60.31;99794.41;4294398;33;20120;-95
2023/07/23 05:00:26;;;;;;;0.10;0.10;;;;;;;21.03;60.33;99792.78;4295903;33;20084;-93
2023/07/23 05:02:51;;;;;;;0.00;0.00;;;;;;;20.97;60.32;99806.47;4296466;33;20111;-94
2023/07/23 05:05:16;;;;;;;0.30;0.30;;;;;;;21.12;60.33;99801.88;4296073;33;20445;-94
2023/07/23 05:07:42;;;;;;;0.40;0.35;;;;;;;21.30;60.34;99797.03;4295403;33;20104;-94
2023/07/23 05:10:08;;;;;;;0.05;0.05;;;;;;;21.43;60.35;99803.06;4295826;33;20099;-94
2023/07/23 05:12:34;;;;;;;0.00;0.00;;;;;;;21.64;60.36;99805.88;4284086;33;20519;-94
2023/07/23 05:15:13;;;;;;;0.10;0.10;;;;;;;21.83;60.37;99800.00;4295866;33;20093;-94
2023/07/23 05:17:39;;;;;;;0.00;0.00;;;;;;;21.91;60.37;99802.91;4296042;33;20808;-94
2023/07/23 05:20:06;;;;;;;1.55;0.50;;;;;;;21.95;60.38;99805.19;4295703;33;20104;-93
2023/07/23 05:22:32;;;;;;;0.13;0.13;;;;;;;22.27;60.39;99808.00;4295931;33;20126;-93
2023/07/23 05:24:58;;;;;;;0.20;0.20;;;;;;;22.34;60.40;99803.87;4295602;33;20118;-94
2023/07/23 05:27:23;;;;;;;0.57;0.20;;;;;;;22.55;60.40;99809.28;4295578;33;20112;-94
2023/07/23 05:29:48;;;;;;;2.33;0.28;;;;;;;22.58;60.41;99810.84;4295150;33;20100;-94
2023/07/23 05:32:14;;;;;;;0.32;0.20;;;;;;;22.78;60.41;99815.38;4283254;33;20121;-94
2023/07/23 05:34:39;;;;;;;0.35;0.35;;;;;;;22.85;60.42;99819.25;4295413;33;20159;-94
2023/07/23 05:37:05;;;;;;;0.30;0.20;;;;;;;23.07;60.43;99809.50;4294991;33;20112;-94
2023/07/23 05:39:30;;;;;;;0.00;0.00;;;;;;;23.24;60.44;99811.63;4295621;33;20135;-94
2023/07/23 05:41:56;;;;;;;0.00;0.00;;;;;;;23.41;60.45;99812.84;4296741;33;20166;-94
2023/07/23 05:44:21;;;;;;;0.30;0.30;;;;;;;23.71;60.46;99820.09;4308768;33;20123;-94
2023/07/23 05:46:46;;;;;;;0.32;0.10;;;;;;;23.93;60.47;99816.44;4301717;33;20108;-94
2023/07/23 05:49:12;;;;;;;0.10;0.10;;;;;;;23.90;60.48;99809.56;4283333;33;20128;-94
2023/07/23 05:51:37;;;;;;;0.00;0.00;;;;;;;23.86;60.47;99816.09;4295291;33;20135;-94
2023/07/23 05:54:03;;;;;;;2.45;0.73;;;;;;;23.76;60.47;99816.03;4295021;33;20222;-94
2023/07/23 05:56:29;;;;;;;0.20;0.20;;;;;;;24.00;60.48;99820.22;4295138;33;20446;-92
2023/07/23 05:58:55;;;;;;;0.00;0.00;;;;;;;24.23;60.49;99823.53;4295310;33;20163;-94
2023/07/23 06:01:20;;;;;;;0.00;0.00;;;;;;;24.18;60.49;99819.47;4295159;33;20118;-94
2023/07/23 06:03:46;;;;;;;0.85;0.35;;;;;;;24.18;60.48;99819.47;4307158;33;20131;-94
2023/07/23 06:06:11;;;;;;;0.00;0.00;;;;;;;24.20;60.50;99822.00;4295053;33;20135;-93
2023/07/23 06:08:37;;;;;;;1.58;0.60;;;;;;;24.32;60.50;99817.44;4294859;33;20171;-93
2023/07/23 06:11:02;;;;;;;0.10;0.10;;;;;;;24.50;60.50;99813.16;4295043;33;20115;-93
2023/07/23 06:13:27;;;;;;;0.00;0.00;;;;;;;24.40;60.50;99821.13;4294906;33;20096;-94
2023/07/23 06:15:53;;;;;;;0.37;0.37;;;;;;;24.57;60.51;99821.44;4295094;33;20104;-94
2023/07/23 06:18:18;;;;;;;0.30;0.30;;;;;;;24.69;60.51;99820.34;4294853;33;20181;-94
2023/07/23 06:21:18;;;;;;;0.10;0.10;;;;;;;24.90;60.52;99823.75;4294665;33;20088;-95
2023/07/23 06:24:34;;;;;;;0.40;0.40;;;;;;;25.04;60.53;99817.19;4307551;33;20087;-94
2023/07/23 06:26:59;;;;;;;0.28;0.28;;;;;;;25.05;60.53;99816.19;4279667;33;20189;-95
2023/07/23 06:29:25;;;;;;;0.00;0.00;;;;;;;25.29;60.55;99827.28;4294947;33;20163;-93
2023/07/23 06:31:51;;;;;;;0.08;0.08;;;;;;;25.38;60.56;99826.44;4295290;33;20084;-94
2023/07/23 06:34:16;;;;;;;1.85;0.75;;;;;;;25.39;60.55;99825.47;4294854;33;20151;-94
2023/07/23 06:36:42;;;;;;;0.08;0.08;;;;;;;25.50;60.55;99826.28;4294705;33;20123;-93
2023/07/23 06:39:07;;;;;;;0.20;0.20;;;;;;;25.59;60.56;99828.94;4294793;33;20170;-94
2023/07/23 06:41:33;;;;;;;0.65;0.28;;;;;;;25.63;60.57;99830.34;4294874;33;20095;-94
2023/07/23 06:43:58;;;;;;;0.10;0.10;;;;;;;25.86;60.58;99819.38;4294831;33;20115;-94
2023/07/23 06:46:24;;;;;;;0.00;0.00;;;;;;;26.05;60.59;99816.66;4294629;33;20141;-94
2023/07/23 06:48:49;;;;;;;1.55;0.77;;;;;;;26.29;60.60;99819.63;4294553;33;20151;-92
2023/07/23 06:51:15;;;;;;;1.35;0.15;;;;;;;26.69;60.62;99813.09;4294627;33;20114;-93
2023/07/23 06:53:43;;;;;;;0.05;0.05;;;;;;;26.66;60.62;99813.41;4294456;33;20100;-92
2023/07/23 06:56:09;;;;;;;0.00;0.00;;;;;;;27.05;60.64;99808.66;4294566;33;20163;-93
2023/07/23 06:58:36;;;;;;;0.37;0.37;;;;;;;27.12;60.64;99809.72;4294698;33;20355;-93
2023/07/23 07:01:02;;;;;;;0.90;0.62;;;;;;;27.36;60.65;99819.78;4294758;33;20099;-93
2023/07/23 07:03:27;;;;;;;0.00;0.00;;;;;;;27.62;60.66;99817.16;4294840;33;20150;-93
2023/07/23 07:05:53;;;;;;;0.13;0.13;;;;;;;27.72;60.67;99819.75;4294446;33;20138;-93
2023/07/23 07:08:18;;;;;;;0.55;0.30;;;;;;;27.93;60.69;99816.69;4294891;33;20136;-93
2023/07/23 07:10:44;;;;;;;0.10;0.10;;;;;;;28.07;60.69;99813.41;4300208;33;20145;-93
2023/07/23 07:13:09;;;;;;;0.00;0.00;;;;;;;27.97;60.67;99807.34;4303248;33;20126;-93
2023/07/23 07:15:35;;;;;;;0.10;0.10;;;;;;;28.12;60.69;99805.75;4297279;33;20462;-94
2023/07/23 07:18:00;;;;;;;0.40;0.40;;;;;;;28.08;60.69;99805.22;4294343;33;20104;-94
2023/07/23 07:20:25;;;;;;;0.43;0.43;;;;;;;28.15;60.70;99808.09;4293538;33;20417;-94
2023/07/23 07:22:51;;;;;;;0.10;0.10;;;;;;;28.18;60.70;99810.47;4294475;33;20423;-93
2023/07/23 07:25:16;;;;;;;0.00;0.00;;;;;;;28.32;60.70;99811.72;4294585;33;20126;-93
2023/07/23 07:27:42;;;;;;;0.00;0.00;;;;;;;28.26;60.70;99809.69;4294313;33;20108;-94
2023/07/23 07:30:07;;;;;;;0.00;0.00;;;;;;;28.33;60.70;99811.56;4294290;33;20152;-93
2023/07/23 07:32:33;;;;;;;0.25;0.25;;;;;;;28.45;60.70;99805.91;4283989;33;346336;-93
2023/07/23 07:34:58;;;;;;;0.10;0.10;;;;;;;28.50;60.71;99803.59;4294187;33;20437;-93
2023/07/23 07:37:25;;;;;;;0.17;0.17;;;;;;;28.38;60.71;99801.19;4294467;33;20171;-94
2023/07/23 07:39:51;;;;;;;0.00;0.00;;;;;;;28.41;60.71;99805.41;4294939;33;20164;-93
2023/07/23 07:42:17;;;;;;;0.52;0.17;;;;;;;28.59;60.71;99805.28;4294367;33;20114;-94
2023/07/23 07:44:43;;;;;;;0.10;0.10;;;;;;;28.53;60.71;99805.94;4282440;33;20120;-93
2023/07/23 07:47:08;;;;;;;0.10;0.10;;;;;;;28.73;60.72;99800.12;4294116;33;20127;-94
2023/07/23 07:49:33;;;;;;;0.10;0.10;;;;;;;28.82;60.73;99800.12;4294309;33;20088;-94
2023/07/23 07:51:59;;;;;;;0.00;0.00;;;;;;;28.63;60.72;99807.50;4294159;33;20103;-95
2023/07/23 07:54:24;;;;;;;0.57;0.57;;;;;;;29.02;60.74;99806.91;4294151;33;20100;-95
2023/07/23 07:56:51;;;;;;;0.00;0.00;;;;;;;29.09;60.74;99804.38;4294065;33;20513;-94
2023/07/23 07:59:16;;;;;;;0.17;0.17;;;;;;;28.98;60.73;99806.41;4294284;33;20091;-94
2023/07/23 08:01:42;;;;;;;2.40;0.95;;;;;;;29.18;60.75;99806.09;4293920;33;20099;-93
2023/07/23 08:04:12;;;;;;;1.23;0.10;;;;;;;29.32;60.75;99802.72;4294078;33;20171;-94
2023/07/23 08:06:37;;;;;;;;;;;;;;;29.27;60.76;99794.34;4306293;33;20766;-93
2023/07/23 08:09:03;;;;;;;0.95;0.85;;;;;;;29.39;60.76;99793.00;4306037;33;20013;-94
2023/07/23 08:11:30;;;;;;;0.60;0.60;;;;;;;29.56;60.78;99794.69;4293887;33;20085;-91
2023/07/23 08:13:55;;;;;;;0.10;0.10;;;;;;;29.68;60.77;99789.81;4293710;33;20173;-92
2023/07/23 08:16:20;;;;;;;0.03;0.03;;;;;;;29.77;60.78;99796.00;4293704;33;20132;-93
2023/07/23 08:18:46;;;;;;;0.00;0.00;;;;;;;29.74;60.78;99794.50;4293827;33;20162;-93
2023/07/23 08:21:12;;;;;;;0.00;0.00;;;;;;;29.76;60.78;99788.94;4293882;33;20164;-94
2023/07/23 08:23:38;;;;;;;1.87;0.70;;;;;;;29.92;60.78;99794.28;4281929;33;20138;-94
2023/07/23 08:26:04;;;;;;;0.00;0.00;;;;;;;30.02;60.79;99788.69;4293565;33;20143;-93
2023/07/23 08:28:30;;;;;;;0.35;0.32;;;;;;;30.10;60.80;99794.09;4281526;33;20126;-93
2023/07/23 08:30:56;;;;;;;0.20;0.10;;;;;;;30.25;60.81;99789.66;4293917;33;20143;-93
2023/07/23 08:33:27;;;;;;;0.28;0.28;;;;;;;30.35;60.81;99789.47;4282706;33;20112;-94
2023/07/23 08:35:53;;;;;;;0.73;0.68;;;;;;;30.46;60.82;99783.69;4308059;33;20141;-94
2023/07/23 08:38:18;;;;;;;0.13;0.10;;;;;;;30.72;60.83;99786.91;4295426;33;20119;-93
2023/07/23 08:40:44;;;;;;;0.00;0.00;;;;;;;30.81;60.83;99788.53;4307379;33;20080;-92
2023/07/23 08:43:29;;;;;;;0.10;0.10;;;;;;;30.98;60.84;99778.50;4299781;33;20148;-91
2023/07/23 08:46:23;;;;;;;0.00;0.00;;;;;;;31.22;60.85;99782.88;4319465;33;20142;-91
2023/07/23 08:48:54;;;;;;;0.00;0.00;;;;;;;31.36;60.86;99779.41;4307416;33;20461;-90
2023/07/23 08:51:21;;;;;;;0.10;0.10;;;;;;;31.55;60.87;99774.50;4319378;33;20519;-89
2023/07/23 08:53:47;;;;;;;0.00;0.00;;;;;;;31.76;60.88;99782.72;4307209;33;20104;-89
2023/07/23 08:56:12;;;;;;;0.30;0.30;;;;;;;31.90;60.89;99783.75;4295140;33;20525;-88
2023/07/23 08:58:37;;;;;;;0.00;0.00;;;;;;;32.01;60.90;99781.44;4295054;33;20104;-87
2023/07/23 09:01:03;;;;;;;0.43;0.43;;;;;;;32.02;60.89;99779.56;4307116;33;20756;-87
2023/07/23 09:03:28;;;;;;;0.10;0.10;;;;;;;32.09;60.89;99785.88;4294896;33;20116;-87
2023/07/23 09:05:54;;;;;;;0.13;0.13;;;;;;;32.16;60.90;99786.78;4307173;33;20107;-86
2023/07/23 09:08:20;;;;;;;0.28;0.25;;;;;;;32.24;60.90;99785.88;4306376;33;34874;-86
2023/07/23 09:10:45;;;;;;;0.10;0.10;;;;;;;32.24;60.91;99788.56;4306543;33;31100;-87
2023/07/23 09:13:11;;;;;;;0.77;0.77;;;;;;;32.45;60.92;99785.97;4294141;33;31982;-86
2023/07/23 09:15:37;;;;;;;0.00;0.00;;;;;;;32.49;60.91;99784.56;4320554;33;20103;-87
2023/07/23 09:18:03;;;;;;;0.70;0.70;;;;;;;32.54;60.92;99789.38;4318940;33;20115;-87
2023/07/23 09:20:28;;;;;;;0.62;0.10;;;;;;;32.63;60.92;99791.75;4307131;33;20100;-87
2023/07/23 09:22:54;;;;;;;0.00;0.00;;;;;;;32.73;60.93;99790.63;4306863;33;20135;-87
2023/07/23 09:25:19;;;;;;;0.10;0.10;;;;;;;32.83;60.93;99785.78;4320435;33;20119;-87
2023/07/23 09:27:45;;;;;;;0.20;0.20;;;;;;;32.91;60.95;99775.72;4294396;33;23237;-87
2023/07/23 09:30:20;;;;;;;0.65;0.10;;;;;;;32.93;60.94;99780.91;4319703;33;27639;-87
2023/07/23 09:32:58;;;;;;;0.17;0.00;;;;;;;32.67;60.92;99779.59;4307281;33;20104;-87
2023/07/23 09:35:24;;;;;;;0.70;0.30;;;;;;;32.80;60.93;99788.84;4307023;33;20115;-87
2023/07/23 09:37:59;;;;;;;0.30;0.30;;;;;;;32.86;60.94;99790.78;4320198;33;20168;-88
2023/07/23 09:40:45;;;;;;;0.10;0.10;;;;;;;32.99;60.95;99782.81;4307209;33;20151;-87
2023/07/23 09:43:10;;;;;;;0.10;0.10;;;;;;;33.24;60.96;99786.78;4319766;33;20144;-88
2023/07/23 09:45:37;;;;;;;0.13;0.13;;;;;;;33.16;60.96;99786.94;4294794;33;20190;-88
2023/07/23 09:48:03;;;;;;;0.00;0.00;;;;;;;33.27;60.96;99777.47;4306954;33;20088;-88
2023/07/23 09:50:29;;;;;;;0.52;0.40;;;;;;;33.33;60.96;99776.72;4318961;33;20139;-87
2023/07/23 09:52:55;;;;;;;0.30;0.30;;;;;;;33.33;60.97;99779.41;4294855;33;20120;-88
2023/07/23 09:55:21;;;;;;;0.75;0.62;;;;;;;33.27;60.96;99769.38;4306745;33;20127;-87
2023/07/23 09:57:51;;;;;;;1.05;0.73;;;;;;;33.28;60.96;99776.44;4306807;33;20510;-88
2023/07/23 10:00:17;;;;;;;0.20;0.20;;;;;;;33.16;60.96;99773.44;4318942;33;20096;-89
2023/07/23 10:02:43;;;;;;;0.80;0.70;;;;;;;33.24;60.96;99775.16;4306937;33;20112;-89
2023/07/23 10:05:10;;;;;;;0.62;0.62;;;;;;;33.21;60.96;99771.00;4306945;33;20387;-88
2023/07/23 10:07:37;;;;;;;1.85;0.28;;;;;;;33.33;60.97;99768.62;4306975;33;20106;-89
2023/07/23 10:10:03;;;;;;;2.37;0.60;;;;;;;33.49;60.98;99762.09;4307730;33;20068;-89
2023/07/23 10:12:28;;;;;;;0.00;0.00;;;;;;;33.65;60.98;99753.72;4295061;33;20108;-89
2023/07/23 10:14:53;;;;;;;0.90;0.10;;;;;;;33.88;61.00;99758.88;4306115;33;26664;-89
2023/07/23 10:17:19;;;;;;;0.00;0.00;;;;;;;34.10;61.00;99751.50;4306508;33;20116;-89
2023/07/23 10:19:44;;;;;;;0.10;0.05;;;;;;;34.17;61.01;99746.94;4306772;33;20110;-90
2023/07/23 10:22:10;;;;;;;0.37;0.37;;;;;;;34.32;61.01;99753.03;4294539;33;20470;-89
2023/07/23 10:24:39;;;;;;;0.22;0.22;;;;;;;34.47;61.02;99742.06;4320073;33;20466;-90
2023/07/23 10:27:11;;;;;;;1.30;0.37;;;;;;;34.29;61.00;99744.47;4306746;33;20139;-90
2023/07/23 10:29:37;;;;;;;0.25;0.25;;;;;;;34.12;61.01;99739.44;4306393;33;20163;-89
2023/07/23 10:32:22;;;;;;;0.00;0.00;;;;;;;34.24;61.01;99738.84;4306556;33;20130;-89
2023/07/23 10:34:47;;;;;;;0.28;0.22;;;;;;;33.99;61.00;99744.78;4306371;33;20112;-90
2023/07/23 10:37:18;;;;;;;0.28;0.28;;;;;;;34.01;60.99;99740.00;4306137;33;20092;-90
2023/07/23 10:39:45;;;;;;;0.25;0.25;;;;;;;33.96;61.00;99730.84;4306707;33;20151;-90
2023/07/23 10:42:41;;;;;;;0.95;0.55;;;;;;;34.01;60.99;99734.59;4294882;33;20112;-90
2023/07/23 10:45:15;;;;;;;0.10;0.10;;;;;;;34.08;61.00;99729.25;4306824;33;20116;-90
2023/07/23 10:47:49;;;;;;;0.30;0.30;;;;;;;34.21;61.01;99728.44;4294670;33;20095;-89
2023/07/23 10:50:16;;;;;;;0.52;0.52;;;;;;;34.34;61.01;99725.81;4295051;33;20100;-90
2023/07/23 10:52:46;;;;;;;0.20;0.20;;;;;;;34.40;61.02;99720.44;4294705;33;20233;-90
2023/07/23 10:55:12;;;;;;;0.47;0.37;;;;;;;34.34;61.01;99721.28;4305709;33;20128;-91
2023/07/23 10:57:41;;;;;;;0.00;0.00;;;;;;;34.32;61.02;99727.88;4294508;33;20422;-90
2023/07/23 11:00:26;;;;;;;0.20;0.20;;;;;;;34.14;61.01;99720.34;4294277;33;20096;-91
2023/07/23 11:02:53;;;;;;;0.47;0.47;;;;;;;34.05;61.01;99713.41;4306254;33;20520;-90
2023/07/23 11:05:21;;;;;;;0.10;0.10;;;;;;;34.32;61.01;99708.97;4294777;33;20116;-90
2023/07/23 11:08:19;;;;;;;0.00;0.00;;;;;;;34.31;61.02;99712.69;4306630;33;20100;-89
2023/07/23 11:10:47;;;;;;;0.10;0.10;;;;;;;34.52;61.02;99703.63;4306531;33;20179;-90
2023/07/23 11:13:14;;;;;;;0.00;0.00;;;;;;;34.36;61.02;99702.97;4318100;33;20115;-90
2023/07/23 11:15:39;;;;;;;0.43;0.10;;;;;;;34.14;61.01;99696.03;4294262;33;20108;-90
2023/07/23 11:18:05;;;;;;;0.10;0.10;;;;;;;34.28;61.02;99703.13;4294159;33;20158;-90
2023/07/23 11:20:31;;;;;;;0.00;0.00;;;;;;;34.46;61.02;99698.00;4294125;33;20144;-90
2023/07/23 11:22:59;;;;;;;1.98;0.30;;;;;;;34.61;61.04;99692.41;4294241;33;20135;-91
2023/07/23 11:25:25;;;;;;;0.00;0.00;;;;;;;34.79;61.04;99686.41;4294069;33;20142;-90
2023/07/23 11:27:50;;;;;;;0.30;0.30;;;;;;;34.72;61.03;99682.84;4306165;33;20097;-90
2023/07/23 11:30:16;;;;;;;0.17;0.17;;;;;;;34.47;61.02;99678.03;4294080;33;20103;-89
2023/07/23 11:32:41;;;;;;;0.10;0.10;;;;;;;34.30;61.02;99682.13;4294376;33;20123;-90